San Jose, Costa Rica
Current Conditions -  °F | °C
As of 6:00 PM on Tuesday 21 Oct 2014 (Local Time) from MROC Reporting Station
Scattered Clouds Scattered Clouds  
Wind Chill: 21°   Ceiling: Unl
Heat Index: 21°   Visibility: 6mi
Dew Point: 19°   Wind: 9mph
Humidity: 88%   Direction: 280°W
Pressure: 29.96"   Gusts: NA
Location:  10°N, 84.22°W
Report Text: MROC 220000Z 28008KT 9999 FEW015 SCT020 21/19 A2996 NOSIG
Loading
Personal Weather Stations






























Interactive Weather Map
Tropical Storm Tracking
New forecast layout! Learn more

10-Day Weather Forecast

Advertisements
Track Severe Weather on mobile